createdAt,value
2023-02-09T00:01:44.745Z,84.98
2023-02-09T00:06:46.475Z,87.11
2023-02-09T00:11:48.619Z,89.81
2023-02-09T00:16:52.035Z,91.20
2023-02-09T00:21:54.034Z,93.07
2023-02-09T00:26:55.592Z,92.53
2023-02-09T00:31:57.174Z,94.16
2023-02-09T00:36:58.683Z,96.31
2023-02-09T00:42:00.280Z,96.54
2023-02-09T00:47:03.698Z,95.24
2023-02-09T00:52:05.421Z,93.21
2023-02-09T00:57:06.947Z,93.87
2023-02-09T01:02:08.746Z,95.64
2023-02-09T01:07:10.324Z,95.65
2023-02-09T01:12:11.844Z,98.07
2023-02-09T01:17:13.376Z,99.97
2023-02-09T01:22:16.438Z,96.14
2023-02-09T01:27:20.760Z,93.17
2023-02-09T01:32:22.279Z,94.97
2023-02-09T01:37:23.842Z,97.15
2023-02-09T01:42:25.452Z,100.00
2023-02-09T01:47:27.055Z,100.00
2023-02-09T01:52:29.362Z,100.00
2023-02-09T01:57:37.244Z,99.84
2023-02-09T02:02:39.695Z,97.31
2023-02-09T02:07:46.785Z,100.00
2023-02-09T02:12:48.689Z,100.00
2023-02-09T02:18:28.097Z,100.00
2023-02-09T02:23:45.308Z,100.00
2023-02-09T02:29:14.821Z,96.70
2023-02-09T02:34:37.469Z,96.19
2023-02-09T02:39:49.457Z,100.00
2023-02-09T02:45:08.832Z,100.00
2023-02-09T02:50:23.849Z,100.00
2023-02-09T02:55:30.275Z,100.00
2023-02-09T03:00:36.589Z,100.00
2023-02-09T03:05:38.722Z,100.00
2023-02-09T03:10:42.118Z,100.00
2023-02-09T03:22:28.931Z,100.00
2023-02-09T03:27:41.532Z,100.00
2023-02-09T03:32:45.487Z,100.00
2023-02-09T03:37:47.190Z,100.00
2023-02-09T03:42:49.471Z,100.00
2023-02-09T03:47:51.116Z,100.00
2023-02-09T03:52:52.657Z,100.00
2023-02-09T03:57:54.231Z,100.00
2023-02-09T04:02:55.744Z,100.00
2023-02-09T04:07:57.234Z,100.00
2023-02-09T04:12:58.731Z,100.00
2023-02-09T04:18:00.359Z,100.00
2023-02-09T04:23:01.899Z,100.00
2023-02-09T04:28:04.370Z,100.00
2023-02-09T04:33:06.096Z,100.00
2023-02-09T04:38:07.588Z,100.00
2023-02-09T04:43:09.164Z,100.00
2023-02-09T04:48:13.625Z,100.00
2023-02-09T04:53:15.528Z,100.00
2023-02-09T04:58:19.850Z,100.00
2023-02-09T05:03:23.669Z,100.00
2023-02-09T05:08:26.337Z,100.00
2023-02-09T05:13:28.476Z,100.00
2023-02-09T05:18:32.672Z,100.00
2023-02-09T05:23:34.439Z,100.00
2023-02-09T05:28:36.377Z,100.00
2023-02-09T05:33:37.874Z,100.00
2023-02-09T05:38:39.757Z,100.00
2023-02-09T05:43:41.281Z,100.00
2023-02-09T05:48:42.902Z,100.00
2023-02-09T05:53:44.448Z,100.00
2023-02-09T05:58:45.923Z,100.00
2023-02-09T06:03:47.505Z,100.00
2023-02-09T06:08:49.092Z,100.00
2023-02-09T06:13:50.604Z,100.00
2023-02-09T06:18:52.223Z,100.00
2023-02-09T06:23:53.836Z,100.00
2023-02-09T06:28:55.657Z,100.00
2023-02-09T06:33:57.278Z,100.00
2023-02-09T06:38:58.898Z,100.00
2023-02-09T06:44:00.534Z,100.00
2023-02-09T06:49:02.474Z,100.00
2023-02-09T06:54:04.431Z,100.00
2023-02-09T06:59:06.016Z,100.00
2023-02-09T07:04:07.546Z,100.00
2023-02-09T07:09:09.253Z,100.00
2023-02-09T07:14:10.908Z,100.00
2023-02-09T07:19:12.991Z,100.00
2023-02-09T07:24:14.577Z,100.00
2023-02-09T07:29:16.734Z,100.00
2023-02-09T07:34:18.253Z,100.00
2023-02-09T07:39:19.923Z,100.00
2023-02-09T07:44:21.556Z,100.00
2023-02-09T07:49:23.147Z,100.00
2023-02-09T07:54:24.753Z,100.00
2023-02-09T07:59:26.330Z,100.00
2023-02-09T08:04:27.961Z,100.00
2023-02-09T08:09:29.607Z,100.00
2023-02-09T08:14:37.693Z,100.00
2023-02-09T08:19:39.619Z,98.71
2023-02-09T08:24:41.406Z,99.07
2023-02-09T08:29:43.191Z,95.86
2023-02-09T08:34:44.755Z,93.76
2023-02-09T08:39:46.276Z,89.02
2023-02-09T08:44:48.051Z,86.81
2023-02-09T08:49:50.205Z,82.56
2023-02-09T08:54:51.783Z,82.78
2023-02-09T08:59:53.404Z,82.62
2023-02-09T09:04:54.912Z,80.33
2023-02-09T09:09:56.483Z,80.75
2023-02-09T09:14:57.995Z,81.19
2023-02-09T09:19:59.728Z,78.98
2023-02-09T09:25:01.366Z,79.29
2023-02-09T09:30:04.589Z,79.73
2023-02-09T09:35:06.444Z,74.34
2023-02-09T09:40:17.301Z,76.81
2023-02-09T09:45:24.270Z,73.07
2023-02-09T09:50:31.638Z,72.74
2023-02-09T09:55:34.457Z,73.96
2023-02-09T10:00:42.291Z,71.62
2023-02-09T10:05:45.534Z,73.36
2023-02-09T10:10:51.435Z,71.31
2023-02-09T10:15:55.483Z,68.67
2023-02-09T10:21:04.686Z,68.65
2023-02-09T10:26:09.216Z,66.22
2023-02-09T10:31:32.183Z,61.21
2023-02-09T10:36:37.107Z,60.20
2023-02-09T10:41:41.588Z,63.19
2023-02-09T10:46:43.412Z,60.87
2023-02-09T10:51:44.960Z,57.66
2023-02-09T10:56:48.877Z,62.24
2023-02-09T11:02:03.157Z,60.47
2023-02-09T11:07:14.795Z,61.53
2023-02-09T11:12:16.444Z,60.77
2023-02-09T11:17:46.174Z,59.88
2023-02-09T11:23:15.478Z,59.47
2023-02-09T11:28:54.284Z,62.58
2023-02-09T11:34:15.666Z,61.58
2023-02-09T11:39:26.718Z,61.17
2023-02-09T11:44:46.371Z,60.91
2023-02-09T11:49:50.563Z,57.18
2023-02-09T11:54:57.609Z,55.56
2023-02-09T12:00:05.753Z,56.28
2023-02-09T12:05:13.392Z,57.13
2023-02-09T12:10:42.871Z,55.63
2023-02-09T12:15:49.563Z,55.38
2023-02-09T12:20:54.052Z,55.97
2023-02-09T12:26:00.920Z,54.30
2023-02-09T12:31:04.897Z,53.34
2023-02-09T12:36:09.734Z,49.93
2023-02-09T12:41:11.419Z,48.08
2023-02-09T12:46:45.224Z,48.29
2023-02-09T12:51:49.957Z,49.50
2023-02-09T12:56:51.600Z,50.28
2023-02-09T13:02:08.286Z,50.59
2023-02-09T13:07:29.913Z,48.16
2023-02-09T13:12:42.325Z,47.81
2023-02-09T13:18:06.749Z,45.94
2023-02-09T13:23:14.055Z,45.54
2023-02-09T13:28:18.445Z,44.56
2023-02-09T13:33:49.057Z,45.68
2023-02-09T13:38:50.825Z,46.53
2023-02-09T13:43:52.803Z,44.06
2023-02-09T13:48:54.929Z,46.54
2023-02-09T13:53:59.513Z,47.63
2023-02-09T13:59:01.385Z,45.46
2023-02-09T14:04:35.430Z,46.68
2023-02-09T14:10:01.979Z,49.69
2023-02-09T14:15:03.923Z,48.30
2023-02-09T14:20:19.842Z,49.92
2023-02-09T14:25:31.531Z,48.85
2023-02-09T14:30:36.244Z,48.82
2023-02-09T14:35:45.060Z,50.23
2023-02-09T14:40:46.878Z,49.45
2023-02-09T14:45:58.676Z,49.95
2023-02-09T14:51:10.321Z,49.43
2023-02-09T14:56:30.640Z,50.62
2023-02-09T15:01:32.359Z,50.30
2023-02-09T15:06:35.467Z,54.07
2023-02-09T15:11:42.195Z,55.81
2023-02-09T15:16:44.201Z,56.41
2023-02-09T15:21:52.591Z,57.57
2023-02-09T15:27:01.307Z,58.37
2023-02-09T15:32:03.068Z,59.49
2023-02-09T15:37:04.737Z,60.52
2023-02-09T15:42:14.728Z,61.96
2023-02-09T15:47:16.234Z,61.21
2023-02-09T15:52:18.617Z,63.27
2023-02-09T15:57:20.308Z,62.21
2023-02-09T16:02:21.894Z,62.11
2023-02-09T16:07:26.119Z,63.73
2023-02-09T16:12:27.730Z,60.68
2023-02-09T16:17:29.360Z,63.60
2023-02-09T16:22:30.915Z,62.25
2023-02-09T16:27:32.574Z,63.90
2023-02-09T16:32:34.175Z,67.41
2023-02-09T16:37:36.061Z,68.27
2023-02-09T16:42:37.634Z,69.50
2023-02-09T16:47:40.932Z,69.02
2023-02-09T16:52:43.446Z,70.84
2023-02-09T16:57:44.983Z,73.75
2023-02-09T17:02:57.755Z,76.42
2023-02-09T17:08:13.664Z,76.75
2023-02-09T17:13:15.767Z,70.47
2023-02-09T17:18:24.115Z,72.78
2023-02-09T17:23:28.385Z,74.97
2023-02-09T17:28:30.117Z,76.79
2023-02-09T17:33:34.251Z,79.06
2023-02-09T17:38:37.242Z,82.20
2023-02-09T17:43:38.798Z,82.54
2023-02-09T17:48:40.425Z,84.25
2023-02-09T17:53:41.956Z,84.68
2023-02-09T17:58:43.582Z,86.97
2023-02-09T18:03:45.125Z,89.09
2023-02-09T18:08:46.648Z,93.88
2023-02-09T18:13:48.179Z,93.64
2023-02-09T18:18:49.792Z,93.88
2023-02-09T18:23:51.417Z,94.18
2023-02-09T18:28:53.061Z,95.06
2023-02-09T18:33:54.896Z,99.65
2023-02-09T18:38:56.463Z,97.73
2023-02-09T18:43:58.166Z,100.00
2023-02-09T18:49:01.858Z,100.00
2023-02-09T18:54:04.799Z,97.33
2023-02-09T18:59:06.334Z,97.29
2023-02-09T19:04:07.917Z,95.52
2023-02-09T19:09:09.457Z,97.98
2023-02-09T19:14:11.035Z,98.49
2023-02-09T19:19:12.796Z,97.90
2023-02-09T19:24:14.431Z,98.50
2023-02-09T19:29:16.691Z,98.76
2023-02-09T19:34:18.746Z,96.78
2023-02-09T19:39:20.261Z,95.24
2023-02-09T19:44:21.774Z,93.23
2023-02-09T19:49:23.576Z,95.11
2023-02-09T19:54:25.089Z,96.94
2023-02-09T19:59:26.574Z,98.93
2023-02-09T20:04:28.160Z,97.93
2023-02-09T20:09:29.853Z,100.00
2023-02-09T20:14:33.481Z,100.00
2023-02-09T20:19:36.078Z,100.00
2023-02-09T20:24:37.714Z,100.00
2023-02-09T20:29:39.246Z,100.00
2023-02-09T20:34:40.826Z,100.00
2023-02-09T20:39:42.384Z,99.62
2023-02-09T20:44:44.278Z,97.33
2023-02-09T20:49:45.819Z,96.61
2023-02-09T20:54:47.405Z,95.17
2023-02-09T20:59:48.909Z,94.65
2023-02-09T21:04:50.829Z,94.30
2023-02-09T21:09:52.929Z,93.45
2023-02-09T21:14:54.550Z,95.33
2023-02-09T21:19:56.552Z,99.03
2023-02-09T21:24:58.056Z,100.00
2023-02-09T21:30:00.012Z,100.00
2023-02-09T21:35:03.598Z,100.00
2023-02-09T21:40:06.650Z,100.00
2023-02-09T21:45:09.302Z,100.00
2023-02-09T21:50:12.961Z,100.00
2023-02-09T21:55:14.738Z,100.00
2023-02-09T22:00:16.651Z,100.00
2023-02-09T22:05:18.505Z,100.00
2023-02-09T22:10:20.142Z,100.00
2023-02-09T22:15:21.670Z,100.00
2023-02-09T22:20:23.319Z,100.00
2023-02-09T22:25:24.954Z,100.00
2023-02-09T22:30:26.526Z,100.00
2023-02-09T22:35:28.741Z,100.00
2023-02-09T22:40:30.329Z,100.00
2023-02-09T22:45:32.363Z,100.00
2023-02-09T22:50:34.971Z,100.00
2023-02-09T22:55:36.521Z,100.00
2023-02-09T23:00:38.041Z,100.00
2023-02-09T23:05:39.562Z,100.00
2023-02-09T23:10:41.094Z,100.00
2023-02-09T23:15:42.659Z,100.00
2023-02-09T23:20:44.175Z,100.00
2023-02-09T23:25:45.862Z,100.00
2023-02-09T23:30:48.045Z,100.00
2023-02-09T23:35:49.950Z,100.00
2023-02-09T23:40:51.602Z,100.00
2023-02-09T23:45:53.555Z,100.00
2023-02-09T23:51:04.048Z,100.00
2023-02-09T23:56:05.845Z,100.00
